Time;durP1;ratioP1;P1;durP2;ratioP2;P2;SDS_P1;SDS_P2;PMS_P1;PMS_P2;Temp;Humidity;BMP_temperature;BMP_pressure;BME280_temperature;BME280_humidity;BME280_pressure;Samples;Min_cycle;Max_cycle;Signal;HPM_P1;HPM_P2
2022/10/02 00:02:02;;;;;;;34.10;4.95;;;;;;;;;;7367769;19;20025;-80
2022/10/02 00:04:27;;;;;;;;;;;;;;;;;;7370772;19;20006;-80
2022/10/02 00:06:56;;;;;;;34.10;4.88;;;;;;;;;;7372334;19;19919;-80
2022/10/02 00:09:25;;;;;;;32.65;5.18;;;;;;;;;;7373961;19;20010;-79
2022/10/02 00:11:54;;;;;;;41.72;5.63;;;;;;;;;;7363367;19;20031;-79
2022/10/02 00:14:21;;;;;;;33.00;4.63;;;;;;;;;;7373280;19;20018;-81
2022/10/02 00:16:49;;;;;;;27.52;3.88;;;;;;;;;;7363022;19;20015;-78
2022/10/02 00:19:15;;;;;;;36.20;5.57;;;;;;;;;;7373756;19;20031;-80
2022/10/02 00:21:43;;;;;;;29.60;4.85;;;;;;;;;;7342343;19;20018;-81
2022/10/02 00:24:13;;;;;;;27.65;5.72;;;;;;;;;;7368387;19;20017;-81
2022/10/02 00:27:00;;;;;;;50.70;6.25;;;;;;;;;;7371853;19;20565;-79
2022/10/02 00:29:28;;;;;;;43.17;5.20;;;;;;;;;;7384140;19;20078;-79
2022/10/02 00:32:05;;;;;;;39.85;5.22;;;;;;;;;;7384136;19;20367;-80
2022/10/02 00:34:43;;;;;;;28.30;5.38;;;;;;;;;;7382363;19;20010;-80
2022/10/02 00:37:14;;;;;;;30.38;4.63;;;;;;;;;;7383473;19;20049;-79
2022/10/02 00:39:48;;;;;;;35.78;5.78;;;;;;;;;;7374419;19;20026;-79
2022/10/02 00:42:13;;;;;;;;;;;;;;;;;;7388878;19;20010;-79
2022/10/02 00:44:53;;;;;;;25.35;5.60;;;;;;;;;;7391491;19;19923;-78
2022/10/02 00:47:21;;;;;;;23.38;4.28;;;;;;;;;;7388951;19;20013;-78
2022/10/02 00:49:52;;;;;;;33.15;5.03;;;;;;;;;;7383850;19;20010;-79
2022/10/02 00:52:30;;;;;;;32.90;5.35;;;;;;;;;;7378341;19;20478;-79
2022/10/02 00:55:15;;;;;;;35.03;5.50;;;;;;;;;;7378436;19;21242;-79
2022/10/02 00:57:50;;;;;;;33.67;5.18;;;;;;;;;;7385213;19;20011;-78
2022/10/02 01:00:18;;;;;;;32.00;5.07;;;;;;;;;;7388645;19;20757;-79
2022/10/02 01:03:02;;;;;;;35.38;4.93;;;;;;;;;;7390878;19;20022;-79
2022/10/02 01:05:27;;;;;;;30.15;5.00;;;;;;;;;;7382440;19;20052;-80
2022/10/02 01:07:53;;;;;;;30.98;4.57;;;;;;;;;;7378453;19;20459;-78
2022/10/02 01:10:21;;;;;;;34.05;4.63;;;;;;;;;;7386882;19;20007;-79
2022/10/02 01:12:46;;;;;;;33.70;4.93;;;;;;;;;;7389709;19;20007;-79
2022/10/02 01:15:13;;;;;;;26.52;4.28;;;;;;;;;;7374999;19;20454;-79
2022/10/02 01:17:38;;;;;;;26.65;5.20;;;;;;;;;;7389695;19;20627;-78
2022/10/02 01:20:04;;;;;;;27.75;4.82;;;;;;;;;;7388253;19;20017;-79
2022/10/02 01:22:42;;;;;;;35.95;5.30;;;;;;;;;;7383735;19;20532;-79
2022/10/02 01:25:07;;;;;;;28.08;4.70;;;;;;;;;;7382636;19;20014;-79
2022/10/02 01:27:33;;;;;;;30.08;4.60;;;;;;;;;;7389643;19;20003;-79
2022/10/02 01:30:04;;;;;;;32.60;4.82;;;;;;;;;;7390508;19;20013;-78
2022/10/02 01:32:30;;;;;;;25.35;4.47;;;;;;;;;;7385570;19;20033;-80
2022/10/02 01:34:56;;;;;;;37.10;4.78;;;;;;;;;;7368325;19;20663;-81
2022/10/02 01:37:24;;;;;;;30.27;5.20;;;;;;;;;;7375910;19;20019;-79
2022/10/02 01:39:50;;;;;;;32.05;4.50;;;;;;;;;;7387444;19;20035;-81
2022/10/02 01:42:15;;;;;;;35.65;5.03;;;;;;;;;;7377650;19;20011;-79
2022/10/02 01:44:41;;;;;;;25.70;4.75;;;;;;;;;;7368287;19;20061;-78
2022/10/02 01:47:08;;;;;;;29.08;4.25;;;;;;;;;;7380268;19;20110;-79
2022/10/02 01:49:56;;;;;;;35.50;5.07;;;;;;;;;;7379684;19;20014;-79
2022/10/02 01:52:35;;;;;;;29.38;4.72;;;;;;;;;;7369391;19;20018;-79
2022/10/02 01:55:06;;;;;;;25.50;4.63;;;;;;;;;;7367671;19;20022;-79
2022/10/02 01:57:51;;;;;;;30.33;4.13;;;;;;;;;;7374831;19;20805;-80
2022/10/02 02:00:18;;;;;;;32.20;4.60;;;;;;;;;;7381341;19;20013;-80
2022/10/02 02:02:49;;;;;;;31.38;4.60;;;;;;;;;;7377287;19;20014;-78
2022/10/02 02:05:33;;;;;;;35.88;4.68;;;;;;;;;;7367156;19;20066;-79
2022/10/02 02:08:16;;;;;;;30.33;4.35;;;;;;;;;;7374173;19;20041;-78
2022/10/02 02:10:53;;;;;;;38.63;5.13;;;;;;;;;;7379647;19;20095;-80
2022/10/02 02:13:33;;;;;;;32.42;4.82;;;;;;;;;;7378378;19;20103;-79
2022/10/02 02:16:04;;;;;;;35.03;4.63;;;;;;;;;;7369290;19;20010;-80
2022/10/02 02:18:36;;;;;;;34.00;5.05;;;;;;;;;;7381631;19;20010;-80
2022/10/02 02:21:05;;;;;;;33.28;4.72;;;;;;;;;;7381177;19;20096;-80
2022/10/02 02:23:32;;;;;;;27.75;4.80;;;;;;;;;;7340235;19;20023;-80
2022/10/02 02:25:59;;;;;;;35.08;5.28;;;;;;;;;;7371934;19;20006;-79
2022/10/02 02:28:26;;;;;;;29.33;5.03;;;;;;;;;;7382070;19;20017;-79
2022/10/02 02:30:53;;;;;;;34.90;4.57;;;;;;;;;;7375343;19;20510;-79
2022/10/02 02:33:22;;;;;;;31.73;4.95;;;;;;;;;;7375090;19;20010;-81
2022/10/02 02:35:50;;;;;;;38.88;5.63;;;;;;;;;;7372845;19;20006;-79
2022/10/02 02:38:20;;;;;;;31.15;5.88;;;;;;;;;;7370871;19;20025;-79
2022/10/02 02:40:46;;;;;;;22.15;4.35;;;;;;;;;;7377507;19;20018;-78
2022/10/02 02:43:14;;;;;;;35.63;5.18;;;;;;;;;;7369844;19;20018;-79
2022/10/02 02:45:46;;;;;;;34.88;5.93;;;;;;;;;;7373040;19;20513;-79
2022/10/02 02:48:31;;;;;;;26.80;4.50;;;;;;;;;;7379562;19;20078;-78
2022/10/02 02:51:02;;;;;;;33.60;5.88;;;;;;;;;;7375872;19;20017;-79
2022/10/02 02:53:34;;;;;;;34.83;5.22;;;;;;;;;;7346513;19;20025;-81
2022/10/02 02:56:04;;;;;;;34.80;5.50;;;;;;;;;;7360104;19;20010;-80
2022/10/02 02:58:36;;;;;;;29.63;5.03;;;;;;;;;;7371910;19;20022;-80
2022/10/02 03:01:01;;;;;;;28.88;4.75;;;;;;;;;;7377731;19;20009;-79
2022/10/02 03:03:27;;;;;;;30.27;4.80;;;;;;;;;;7369653;19;20074;-79
2022/10/02 03:05:56;;;;;;;34.95;5.10;;;;;;;;;;7375741;19;20010;-79
2022/10/02 03:08:23;;;;;;;36.20;5.22;;;;;;;;;;7371871;19;20013;-78
2022/10/02 03:10:57;;;;;;;35.38;5.47;;;;;;;;;;7379325;19;20021;-80
2022/10/02 03:13:22;;;;;;;;;;;;;;;;;;7382570;19;20013;-78
2022/10/02 03:16:03;;;;;;;36.47;5.82;;;;;;;;;;7371341;19;19982;-82
2022/10/02 03:18:49;;;;;;;32.45;5.57;;;;;;;;;;7379983;19;20018;-81
2022/10/02 03:21:17;;;;;;;35.30;5.70;;;;;;;;;;7375649;19;20478;-82
2022/10/02 03:23:42;;;;;;;42.80;5.25;;;;;;;;;;7333004;19;20766;-80
2022/10/02 03:26:12;;;;;;;32.72;5.88;;;;;;;;;;7372523;19;20044;-79
2022/10/02 03:28:42;;;;;;;29.83;5.43;;;;;;;;;;7377088;19;20458;-80
2022/10/02 03:31:08;;;;;;;37.25;5.60;;;;;;;;;;7379496;19;20003;-79
2022/10/02 03:33:35;;;;;;;33.45;5.03;;;;;;;;;;7374562;19;20011;-79
2022/10/02 03:36:00;;;;;;;25.92;6.47;;;;;;;;;;7374586;19;20365;-80
2022/10/02 03:38:26;;;;;;;34.03;4.82;;;;;;;;;;7364517;19;20013;-80
2022/10/02 03:40:56;;;;;;;28.67;4.82;;;;;;;;;;7374885;19;20458;-80
2022/10/02 03:43:22;;;;;;;30.58;5.05;;;;;;;;;;7379092;19;20015;-79
2022/10/02 03:45:47;;;;;;;29.90;5.07;;;;;;;;;;7351787;19;20019;-81
2022/10/02 03:48:13;;;;;;;30.45;5.22;;;;;;;;;;7291217;19;20038;-79
2022/10/02 03:50:38;;;;;;;36.00;5.30;;;;;;;;;;7325813;19;20110;-80
2022/10/02 03:53:14;;;;;;;33.90;5.03;;;;;;;;;;7287100;19;22718;-82
2022/10/02 03:55:42;;;;;;;29.00;4.25;;;;;;;;;;7337596;19;20355;-81
2022/10/02 03:58:12;;;;;;;35.08;5.68;;;;;;;;;;7351870;19;20021;-82
2022/10/02 04:00:40;;;;;;;34.90;6.38;;;;;;;;;;7368165;19;20815;-79
2022/10/02 04:03:16;;;;;;;35.20;5.40;;;;;;;;;;7378724;19;20030;-79
2022/10/02 04:05:45;;;;;;;32.85;5.22;;;;;;;;;;7365833;19;20602;-79
2022/10/02 04:08:17;;;;;;;27.45;5.07;;;;;;;;;;7367700;19;20014;-79
2022/10/02 04:10:57;;;;;;;32.70;5.07;;;;;;;;;;7367569;19;20015;-82
2022/10/02 04:13:26;;;;;;;30.15;5.00;;;;;;;;;;7363340;19;20102;-81
2022/10/02 04:15:57;;;;;;;31.77;5.28;;;;;;;;;;7363367;19;21014;-79
2022/10/02 04:18:30;;;;;;;30.42;4.57;;;;;;;;;;7360293;19;20022;-81
2022/10/02 04:20:58;;;;;;;19.30;3.70;;;;;;;;;;7374998;19;20011;-82
2022/10/02 04:23:27;;;;;;;27.20;4.45;;;;;;;;;;7367414;19;20023;-81
2022/10/02 04:25:56;;;;;;;28.83;5.15;;;;;;;;;;7364254;19;20014;-80
2022/10/02 04:28:25;;;;;;;23.92;4.38;;;;;;;;;;7378565;19;20005;-80
2022/10/02 04:30:51;;;;;;;24.67;4.38;;;;;;;;;;7344437;19;20401;-81
2022/10/02 04:33:17;;;;;;;21.63;3.65;;;;;;;;;;7363891;19;20395;-79
2022/10/02 04:36:05;;;;;;;16.67;3.05;;;;;;;;;;7369289;19;20053;-79
2022/10/02 04:38:49;;;;;;;20.08;3.35;;;;;;;;;;7364208;19;20007;-80
2022/10/02 04:41:32;;;;;;;18.52;2.97;;;;;;;;;;7347838;19;20366;-80
2022/10/02 04:44:07;;;;;;;16.53;2.90;;;;;;;;;;7368768;19;20019;-81
2022/10/02 04:46:47;;;;;;;18.65;2.75;;;;;;;;;;7368665;19;20505;-80
2022/10/02 04:49:21;;;;;;;13.57;2.40;;;;;;;;;;7376196;19;20014;-80
2022/10/02 04:51:49;;;;;;;14.25;2.65;;;;;;;;;;7359958;19;20015;-82
2022/10/02 04:54:27;;;;;;;9.75;2.08;;;;;;;;;;7362124;19;20011;-79
2022/10/02 04:56:58;;;;;;;9.00;2.38;;;;;;;;;;7361813;19;20011;-80
2022/10/02 04:59:30;;;;;;;12.10;2.13;;;;;;;;;;7370868;19;20022;-80
2022/10/02 05:02:00;;;;;;;12.07;2.15;;;;;;;;;;7363982;19;20018;-82
2022/10/02 05:04:40;;;;;;;12.95;2.38;;;;;;;;;;7373686;19;20022;-79
2022/10/02 05:07:05;;;;;;;13.05;1.90;;;;;;;;;;7371323;19;20048;-80
2022/10/02 05:09:41;;;;;;;11.87;2.53;;;;;;;;;;7374916;19;20014;-79
2022/10/02 05:12:17;;;;;;;11.52;2.00;;;;;;;;;;7375396;19;20359;-79
2022/10/02 05:15:03;;;;;;;8.73;1.42;;;;;;;;;;7346215;19;20022;-80
2022/10/02 05:17:28;;;;;;;8.63;1.60;;;;;;;;;;7379276;19;20037;-78
2022/10/02 05:19:53;;;;;;;8.45;1.75;;;;;;;;;;7376229;19;20553;-80
2022/10/02 05:22:26;;;;;;;9.33;1.93;;;;;;;;;;7367599;19;20015;-80
2022/10/02 05:24:54;;;;;;;8.80;1.60;;;;;;;;;;7379572;19;20271;-82
2022/10/02 05:27:25;;;;;;;8.38;1.92;;;;;;;;;;7377723;19;20007;-80
2022/10/02 05:29:50;;;;;;;10.20;2.35;;;;;;;;;;7384035;19;20471;-82
2022/10/02 05:32:23;;;;;;;9.07;2.00;;;;;;;;;;7375017;19;20030;-79
2022/10/02 05:34:51;;;;;;;7.43;1.60;;;;;;;;;;7377596;19;20271;-82
2022/10/02 05:37:35;;;;;;;11.27;1.75;;;;;;;;;;7375594;19;20077;-79
2022/10/02 05:40:19;;;;;;;13.52;1.95;;;;;;;;;;7380073;19;20095;-80
2022/10/02 05:43:13;;;;;;;10.70;1.77;;;;;;;;;;7374707;19;20014;-80
2022/10/02 05:45:42;;;;;;;9.25;1.90;;;;;;;;;;7369348;19;20030;-80
2022/10/02 05:48:17;;;;;;;5.97;1.42;;;;;;;;;;7376470;19;20015;-81
2022/10/02 05:50:45;;;;;;;8.77;1.60;;;;;;;;;;7373436;19;20024;-80
2022/10/02 05:53:22;;;;;;;14.25;1.67;;;;;;;;;;7372894;19;20003;-80
2022/10/02 05:56:03;;;;;;;6.95;1.60;;;;;;;;;;7374723;19;20018;-80
2022/10/02 05:58:35;;;;;;;7.22;1.60;;;;;;;;;;7373346;19;20007;-81
2022/10/02 06:01:06;;;;;;;4.85;1.40;;;;;;;;;;7367871;19;20014;-83
2022/10/02 06:03:42;;;;;;;11.75;1.92;;;;;;;;;;7377221;19;20047;-82
2022/10/02 06:06:25;;;;;;;8.77;1.67;;;;;;;;;;7378877;19;20018;-79
2022/10/02 06:08:57;;;;;;;9.48;1.70;;;;;;;;;;7330207;19;20010;-82
2022/10/02 06:11:41;;;;;;;7.72;1.73;;;;;;;;;;7369166;19;20011;-81
2022/10/02 06:14:15;;;;;;;5.93;1.45;;;;;;;;;;7376347;19;20014;-80
2022/10/02 06:16:58;;;;;;;5.68;1.92;;;;;;;;;;7380922;19;20006;-80
2022/10/02 06:19:27;;;;;;;8.87;1.87;;;;;;;;;;7371777;19;20081;-82
2022/10/02 06:21:58;;;;;;;7.70;1.83;;;;;;;;;;7374683;19;20264;-82
2022/10/02 06:24:26;;;;;;;5.97;1.90;;;;;;;;;;7378610;19;20683;-81
2022/10/02 06:26:56;;;;;;;9.63;2.00;;;;;;;;;;7377735;19;20485;-81
2022/10/02 06:29:26;;;;;;;5.68;1.67;;;;;;;;;;7368139;19;20017;-80
2022/10/02 06:32:06;;;;;;;5.72;2.00;;;;;;;;;;7382195;19;20039;-82
2022/10/02 06:34:31;;;;;;;10.70;2.22;;;;;;;;;;7372253;19;20010;-82
2022/10/02 06:37:07;;;;;;;6.90;1.90;;;;;;;;;;7377180;19;20865;-82
2022/10/02 06:39:50;;;;;;;8.88;2.42;;;;;;;;;;7374367;19;20031;-83
2022/10/02 06:42:22;;;;;;;9.30;1.77;;;;;;;;;;7380032;19;20078;-82
2022/10/02 06:44:56;;;;;;;7.03;1.77;;;;;;;;;;7376388;19;20663;-82
2022/10/02 06:47:34;;;;;;;7.47;1.58;;;;;;;;;;7381447;19;20016;-83
2022/10/02 06:50:18;;;;;;;12.63;2.30;;;;;;;;;;7378206;19;20031;-82
2022/10/02 06:52:44;;;;;;;7.22;1.40;;;;;;;;;;7375286;19;20010;-83
2022/10/02 06:55:09;;;;;;;5.32;1.48;;;;;;;;;;7360047;19;20074;-82
2022/10/02 06:57:34;;;;;;;5.28;1.48;;;;;;;;;;7380167;19;20595;-82
2022/10/02 07:00:15;;;;;;;6.15;1.50;;;;;;;;;;7378184;19;20002;-82
2022/10/02 07:02:59;;;;;;;6.47;1.42;;;;;;;;;;7384378;19;20014;-82
2022/10/02 07:05:25;;;;;;;5.80;1.58;;;;;;;;;;7381456;19;20010;-83
2022/10/02 07:07:59;;;;;;;6.93;1.58;;;;;;;;;;7379904;19;20450;-84
2022/10/02 07:10:36;;;;;;;5.78;1.55;;;;;;;;;;7381648;19;20019;-82
2022/10/02 07:13:11;;;;;;;5.28;1.33;;;;;;;;;;7375221;19;20025;-85
2022/10/02 07:15:36;;;;;;;6.30;1.65;;;;;;;;;;7374206;19;20643;-84
2022/10/02 07:18:18;;;;;;;5.55;1.70;;;;;;;;;;7371519;19;20113;-83
2022/10/02 07:20:50;;;;;;;4.50;1.15;;;;;;;;;;7369964;19;20034;-84
2022/10/02 07:23:25;;;;;;;4.40;1.50;;;;;;;;;;7374374;19;20028;-83
2022/10/02 07:26:01;;;;;;;6.13;1.40;;;;;;;;;;7317522;19;20027;-84
2022/10/02 07:28:26;;;;;;;3.20;0.90;;;;;;;;;;7376740;19;20027;-86
2022/10/02 07:31:00;;;;;;;4.45;0.95;;;;;;;;;;7371653;19;20014;-84
2022/10/02 07:33:41;;;;;;;4.07;0.95;;;;;;;;;;7379730;19;20018;-84
2022/10/02 07:36:16;;;;;;;4.22;1.17;;;;;;;;;;7373070;19;20025;-84
2022/10/02 07:38:44;;;;;;;2.40;0.75;;;;;;;;;;7367627;19;20025;-85
2022/10/02 07:41:18;;;;;;;4.07;0.80;;;;;;;;;;7374785;19;20010;-85
2022/10/02 07:43:43;;;;;;;1.92;0.70;;;;;;;;;;7375925;19;20558;-85
2022/10/02 07:46:24;;;;;;;4.23;0.80;;;;;;;;;;7368512;19;20081;-84
2022/10/02 07:48:49;;;;;;;9.57;1.10;;;;;;;;;;7375069;19;20271;-85
2022/10/02 07:54:14;;;;;;;4.32;0.98;;;;;;;;;;7320581;19;20513;-85
2022/10/02 07:56:40;;;;;;;2.50;1.00;;;;;;;;;;7341621;19;20014;-86
2022/10/02 07:59:09;;;;;;;4.35;1.08;;;;;;;;;;7374567;19;20025;-85
2022/10/02 08:01:36;;;;;;;3.63;1.02;;;;;;;;;;7370883;19;20043;-85
2022/10/02 08:04:09;;;;;;;3.72;1.33;;;;;;;;;;7364869;19;20014;-84
2022/10/02 08:06:35;;;;;;;3.88;1.20;;;;;;;;;;7373115;19;20019;-84
2022/10/02 08:09:00;;;;;;;3.15;1.20;;;;;;;;;;7365615;19;20018;-84
2022/10/02 08:11:29;;;;;;;3.80;1.27;;;;;;;;;;7373066;19;20015;-84
2022/10/02 08:13:54;;;;;;;5.65;1.38;;;;;;;;;;7377886;19;20770;-84
2022/10/02 08:16:22;;;;;;;3.25;1.00;;;;;;;;;;7363699;19;20042;-85
2022/10/02 08:18:55;;;;;;;4.22;1.25;;;;;;;;;;7374670;19;20017;-85
2022/10/02 08:21:23;;;;;;;3.38;1.17;;;;;;;;;;7374755;19;20018;-84
2022/10/02 08:23:51;;;;;;;1.92;0.80;;;;;;;;;;7368880;19;20053;-84
2022/10/02 08:26:26;;;;;;;3.35;1.02;;;;;;;;;;7353437;19;20022;-83
2022/10/02 08:29:20;;;;;;;4.05;0.90;;;;;;;;;;7378535;19;20552;-85
2022/10/02 08:31:45;;;;;;;1.65;0.70;;;;;;;;;;7363002;19;20026;-84
2022/10/02 08:34:18;;;;;;;3.45;1.02;;;;;;;;;;7374526;19;20040;-84
2022/10/02 08:37:08;;;;;;;2.13;0.82;;;;;;;;;;7364244;19;20025;-86
2022/10/02 08:39:33;;;;;;;3.08;1.00;;;;;;;;;;7369974;19;20021;-85
2022/10/02 08:42:10;;;;;;;6.88;1.48;;;;;;;;;;7372878;19;20006;-84
2022/10/02 08:44:35;;;;;;;4.18;1.10;;;;;;;;;;7375891;19;20006;-84
2022/10/02 08:47:28;;;;;;;5.13;1.07;;;;;;;;;;7356975;19;20509;-84
2022/10/02 08:50:13;;;;;;;6.30;1.23;;;;;;;;;;7361306;19;20027;-84
2022/10/02 08:52:49;;;;;;;3.40;1.30;;;;;;;;;;7376016;19;20082;-83
2022/10/02 08:55:23;;;;;;;2.85;1.10;;;;;;;;;;7378362;19;20024;-85
2022/10/02 08:57:55;;;;;;;4.75;1.20;;;;;;;;;;7351449;19;20041;-84
2022/10/02 09:00:20;;;;;;;4.25;1.33;;;;;;;;;;7364061;19;20015;-84
2022/10/02 09:03:00;;;;;;;5.10;1.10;;;;;;;;;;7385404;19;20478;-84
2022/10/02 09:05:44;;;;;;;2.42;1.00;;;;;;;;;;7376942;19;20350;-83
2022/10/02 09:08:12;;;;;;;3.22;1.10;;;;;;;;;;7366035;19;20017;-87
2022/10/02 09:10:49;;;;;;;2.47;1.00;;;;;;;;;;7379558;19;20014;-85
2022/10/02 09:13:33;;;;;;;4.63;1.27;;;;;;;;;;7380404;19;20095;-85
2022/10/02 09:16:09;;;;;;;4.07;1.58;;;;;;;;;;7378829;19;20011;-85
2022/10/02 09:18:54;;;;;;;4.93;1.27;;;;;;;;;;7375241;19;20130;-84
2022/10/02 09:21:45;;;;;;;6.32;1.15;;;;;;;;;;7354522;19;20018;-85
2022/10/02 09:24:29;;;;;;;3.45;1.25;;;;;;;;;;7372515;19;20028;-84
2022/10/02 09:27:17;;;;;;;3.92;1.20;;;;;;;;;;7374346;19;20427;-85
2022/10/02 09:29:54;;;;;;;3.97;1.33;;;;;;;;;;7371946;19;20011;-85
2022/10/02 09:32:41;;;;;;;3.75;1.20;;;;;;;;;;7372824;19;20018;-84
2022/10/02 09:35:37;;;;;;;5.20;1.50;;;;;;;;;;7371165;19;20018;-84
2022/10/02 09:38:28;;;;;;;2.40;1.10;;;;;;;;;;7362355;19;20014;-85
2022/10/02 09:41:12;;;;;;;4.25;1.20;;;;;;;;;;7372710;19;20025;-83
2022/10/02 09:43:37;;;;;;;4.32;1.30;;;;;;;;;;7375032;19;20034;-84
2022/10/02 09:46:18;;;;;;;3.45;1.38;;;;;;;;;;7368809;19;20007;-83
2022/10/02 09:49:02;;;;;;;4.72;1.13;;;;;;;;;;7378552;19;20006;-84
2022/10/02 09:51:30;;;;;;;3.03;1.00;;;;;;;;;;7365707;19;20345;-84
2022/10/02 09:54:12;;;;;;;3.00;1.30;;;;;;;;;;7367726;19;20014;-84
2022/10/02 09:57:10;;;;;;;1.67;0.90;;;;;;;;;;7371970;19;20892;-84
2022/10/02 09:59:38;;;;;;;3.60;0.80;;;;;;;;;;7366693;19;20018;-84
2022/10/02 10:02:06;;;;;;;3.05;0.90;;;;;;;;;;7366014;19;20011;-84
2022/10/02 10:04:55;;;;;;;2.28;0.90;;;;;;;;;;7377065;19;20007;-85
2022/10/02 10:07:29;;;;;;;4.28;0.80;;;;;;;;;;7366307;19;20343;-84
2022/10/02 10:10:04;;;;;;;2.80;1.00;;;;;;;;;;7375607;19;20018;-84
2022/10/02 10:12:32;;;;;;;1.90;0.60;;;;;;;;;;7380092;19;20416;-84
2022/10/02 10:15:16;;;;;;;1.63;0.50;;;;;;;;;;7373599;19;20092;-87
2022/10/02 10:17:54;;;;;;;1.17;0.52;;;;;;;;;;7369453;19;20588;-84
2022/10/02 10:20:23;;;;;;;1.55;0.57;;;;;;;;;;7327036;19;20006;-84
2022/10/02 10:22:51;;;;;;;1.70;0.55;;;;;;;;;;7367870;19;20007;-84
2022/10/02 10:25:19;;;;;;;3.00;0.60;;;;;;;;;;7346869;19;20414;-85
2022/10/02 10:27:50;;;;;;;3.47;0.80;;;;;;;;;;7323058;19;20031;-84
2022/10/02 10:30:44;;;;;;;2.15;0.50;;;;;;;;;;7366738;19;20431;-85
2022/10/02 10:33:15;;;;;;;2.50;0.70;;;;;;;;;;7374467;19;20112;-85
2022/10/02 10:35:47;;;;;;;1.63;0.52;;;;;;;;;;7367199;19;20025;-84
2022/10/02 10:38:50;;;;;;;1.80;0.65;;;;;;;;;;7369200;19;20074;-85
2022/10/02 10:41:16;;;;;;;1.88;0.60;;;;;;;;;;7364851;19;20022;-83
2022/10/02 10:44:01;;;;;;;1.43;0.60;;;;;;;;;;7374894;19;20018;-85
2022/10/02 10:46:30;;;;;;;0.93;0.45;;;;;;;;;;7358180;19;20561;-85
2022/10/02 10:49:04;;;;;;;2.97;0.80;;;;;;;;;;7373665;19;20377;-83
2022/10/02 10:51:37;;;;;;;2.03;0.77;;;;;;;;;;7357742;19;20405;-86
2022/10/02 10:54:21;;;;;;;1.33;0.45;;;;;;;;;;7331575;19;20423;-84
2022/10/02 10:56:53;;;;;;;2.25;0.80;;;;;;;;;;7363145;19;20102;-86
2022/10/02 10:59:21;;;;;;;2.17;0.60;;;;;;;;;;7371598;19;20011;-85
2022/10/02 11:02:05;;;;;;;2.95;1.00;;;;;;;;;;7375279;19;20021;-84
2022/10/02 11:04:39;;;;;;;3.03;0.70;;;;;;;;;;7373509;19;20014;-86
2022/10/02 11:07:23;;;;;;;3.88;0.82;;;;;;;;;;7367225;19;20074;-84
2022/10/02 11:10:10;;;;;;;3.35;0.73;;;;;;;;;;7376295;19;20581;-85
2022/10/02 11:12:52;;;;;;;1.92;0.82;;;;;;;;;;7378285;19;20658;-86
2022/10/02 11:15:33;;;;;;;2.25;0.70;;;;;;;;;;7367821;19;20082;-84
2022/10/02 11:18:02;;;;;;;4.47;1.23;;;;;;;;;;7373920;19;20018;-85
2022/10/02 11:20:40;;;;;;;2.90;0.90;;;;;;;;;;7376131;19;20113;-83
2022/10/02 11:23:25;;;;;;;2.25;0.80;;;;;;;;;;7360898;19;20014;-85
2022/10/02 11:25:59;;;;;;;4.15;1.10;;;;;;;;;;7370514;19;20015;-84
2022/10/02 11:28:25;;;;;;;3.88;0.90;;;;;;;;;;7364504;19;20921;-85
2022/10/02 11:30:53;;;;;;;4.10;0.90;;;;;;;;;;7368007;19;21962;-84
2022/10/02 11:33:25;;;;;;;2.20;0.80;;;;;;;;;;7376190;19;20010;-84
2022/10/02 11:35:56;;;;;;;3.13;1.20;;;;;;;;;;7370325;19;20017;-83
2022/10/02 11:38:41;;;;;;;3.33;0.90;;;;;;;;;;7362128;19;20462;-83
2022/10/02 11:41:25;;;;;;;6.85;1.10;;;;;;;;;;7366004;19;20018;-83
2022/10/02 11:44:07;;;;;;;10.48;1.50;;;;;;;;;;7366177;19;20050;-83
2022/10/02 11:46:51;;;;;;;3.10;1.20;;;;;;;;;;7375303;19;20010;-83
2022/10/02 11:49:19;;;;;;;;;;;;;;;;;;7379082;19;20033;-83
2022/10/02 11:52:04;;;;;;;2.92;0.60;;;;;;;;;;7369379;19;19923;-84
2022/10/02 11:54:49;;;;;;;2.10;0.70;;;;;;;;;;7373435;19;20021;-85
2022/10/02 11:57:14;;;;;;;3.60;0.90;;;;;;;;;;7355874;19;20484;-84
2022/10/02 12:00:18;;;;;;;2.67;0.95;;;;;;;;;;7377940;19;20014;-83
2022/10/02 12:02:52;;;;;;;2.57;0.70;;;;;;;;;;7377234;19;20542;-82
2022/10/02 12:05:17;;;;;;;;;;;;;;;;;;7367763;19;21477;-84
2022/10/02 12:07:52;;;;;;;3.38;0.70;;;;;;;;;;7375470;19;19926;-83
2022/10/02 12:10:20;;;;;;;3.45;0.93;;;;;;;;;;7376066;19;20042;-84
2022/10/02 12:13:03;;;;;;;3.45;1.15;;;;;;;;;;7369555;19;20031;-84
2022/10/02 12:15:47;;;;;;;2.38;0.75;;;;;;;;;;7368472;19;22180;-84
2022/10/02 12:18:31;;;;;;;2.70;0.90;;;;;;;;;;7373040;19;20098;-83
2022/10/02 12:27:09;;;;;;;3.42;0.80;;;;;;;;;;7374149;19;20039;-83
2022/10/02 12:30:04;;;;;;;4.35;1.10;;;;;;;;;;7377909;19;20328;-85
2022/10/02 12:32:38;;;;;;;3.75;1.13;;;;;;;;;;7365577;19;20019;-83
2022/10/02 12:35:19;;;;;;;4.03;1.10;;;;;;;;;;7371697;19;20676;-83
2022/10/02 12:37:54;;;;;;;4.13;1.45;;;;;;;;;;7371465;19;20028;-83
2022/10/02 12:40:30;;;;;;;3.13;1.00;;;;;;;;;;7372498;19;20020;-83
2022/10/02 12:43:15;;;;;;;2.08;0.80;;;;;;;;;;7373849;19;20006;-84
2022/10/02 12:45:57;;;;;;;4.72;1.23;;;;;;;;;;7367834;19;20018;-85
2022/10/02 12:48:44;;;;;;;3.65;1.17;;;;;;;;;;7351730;19;20014;-84
2022/10/02 12:51:12;;;;;;;3.63;1.00;;;;;;;;;;7358625;19;20767;-84
2022/10/02 12:53:43;;;;;;;3.30;1.10;;;;;;;;;;7363826;19;20011;-83
2022/10/02 12:56:26;;;;;;;2.67;1.02;;;;;;;;;;7351782;19;20109;-84
2022/10/02 12:59:10;;;;;;;3.05;1.10;;;;;;;;;;7361796;19;20045;-84
2022/10/02 13:01:48;;;;;;;6.05;1.25;;;;;;;;;;7367834;19;20035;-85
2022/10/02 13:04:51;;;;;;;6.70;1.42;;;;;;;;;;7375839;19;20482;-85
2022/10/02 13:07:17;;;;;;;5.38;1.50;;;;;;;;;;7352809;19;22465;-85
2022/10/02 13:10:01;;;;;;;4.03;1.33;;;;;;;;;;7363020;19;20353;-84
2022/10/02 13:12:37;;;;;;;3.70;1.17;;;;;;;;;;7367764;19;20013;-84
2022/10/02 13:15:17;;;;;;;4.32;1.38;;;;;;;;;;7371553;19;20615;-84
2022/10/02 13:17:45;;;;;;;5.18;1.42;;;;;;;;;;7356137;19;20260;-85
2022/10/02 13:20:29;;;;;;;3.95;1.15;;;;;;;;;;7359421;19;20522;-85
2022/10/02 13:23:01;;;;;;;4.10;1.40;;;;;;;;;;7364883;19;20510;-85
2022/10/02 13:25:33;;;;;;;6.57;1.85;;;;;;;;;;7354837;19;20601;-86
2022/10/02 13:28:07;;;;;;;4.25;1.65;;;;;;;;;;7354021;19;20010;-85
2022/10/02 13:30:35;;;;;;;5.68;1.42;;;;;;;;;;7353173;19;20031;-84
2022/10/02 13:33:12;;;;;;;9.98;1.95;;;;;;;;;;7367608;19;20007;-84
2022/10/02 13:35:56;;;;;;;4.13;1.50;;;;;;;;;;7359578;19;20017;-85
2022/10/02 13:38:44;;;;;;;5.40;1.85;;;;;;;;;;7337123;19;20002;-86
2022/10/02 13:41:15;;;;;;;5.88;1.70;;;;;;;;;;7372513;19;20038;-84
2022/10/02 13:44:06;;;;;;;6.22;2.00;;;;;;;;;;7373032;19;20014;-84
2022/10/02 13:46:43;;;;;;;5.28;1.67;;;;;;;;;;7372613;19;20014;-84
2022/10/02 13:49:24;;;;;;;8.27;1.60;;;;;;;;;;7366412;19;20393;-86
2022/10/02 13:52:01;;;;;;;5.82;1.70;;;;;;;;;;7374564;19;20022;-84
2022/10/02 13:54:46;;;;;;;6.10;1.60;;;;;;;;;;7367063;19;20056;-84
2022/10/02 13:57:22;;;;;;;6.85;1.95;;;;;;;;;;7369690;19;20014;-84
2022/10/02 14:00:02;;;;;;;4.57;1.63;;;;;;;;;;7366419;19;20014;-85
2022/10/02 14:02:44;;;;;;;7.20;1.77;;;;;;;;;;7352337;19;20502;-85
2022/10/02 14:05:12;;;;;;;6.18;1.30;;;;;;;;;;7355422;19;20003;-84
2022/10/02 14:07:56;;;;;;;7.55;1.73;;;;;;;;;;7355344;19;20477;-84
2022/10/02 14:10:21;;;;;;;;;;;;;;;;;;7340124;19;20116;-84
2022/10/02 14:13:06;;;;;;;4.35;1.30;;;;;;;;;;7361432;19;19986;-84
2022/10/02 14:15:41;;;;;;;6.60;1.60;;;;;;;;;;7371628;19;20031;-83
2022/10/02 14:18:06;;;;;;;3.80;1.48;;;;;;;;;;7380540;19;20018;-84
2022/10/02 14:20:39;;;;;;;4.97;2.00;;;;;;;;;;7378486;19;20713;-83
2022/10/02 14:23:23;;;;;;;7.75;1.98;;;;;;;;;;7348179;19;20268;-85
2022/10/02 14:25:51;;;;;;;7.25;2.25;;;;;;;;;;7375648;19;20026;-84
2022/10/02 14:28:26;;;;;;;7.78;1.90;;;;;;;;;;7367240;19;20022;-84
2022/10/02 14:31:07;;;;;;;7.28;1.98;;;;;;;;;;7335282;19;20357;-83
2022/10/02 14:33:44;;;;;;;6.25;2.15;;;;;;;;;;7366480;19;20015;-83
2022/10/02 14:36:28;;;;;;;6.90;2.00;;;;;;;;;;7350626;19;20335;-83
2022/10/02 14:39:17;;;;;;;4.65;1.52;;;;;;;;;;7333819;19;20014;-84
2022/10/02 14:41:54;;;;;;;8.00;2.10;;;;;;;;;;7375992;19;20094;-83
2022/10/02 14:44:19;;;;;;;8.90;2.00;;;;;;;;;;7363813;19;20328;-87
2022/10/02 14:46:53;;;;;;;8.45;2.10;;;;;;;;;;7368579;19;20034;-83
2022/10/02 14:49:18;;;;;;;;;;;;;;;;;;7376138;19;20685;-83
2022/10/02 14:51:55;;;;;;;7.82;2.38;;;;;;;;;;7372878;19;20435;-85
2022/10/02 14:54:40;;;;;;;8.65;2.05;;;;;;;;;;7371630;19;20030;-83
2022/10/02 14:57:16;;;;;;;7.45;1.70;;;;;;;;;;7351087;19;20018;-84
2022/10/02 15:00:00;;;;;;;8.73;1.77;;;;;;;;;;7377664;19;20073;-83
2022/10/02 15:02:32;;;;;;;8.77;1.85;;;;;;;;;;7378074;19;20880;-83
2022/10/02 15:04:57;;;;;;;6.07;2.00;;;;;;;;;;7367817;19;20021;-83
2022/10/02 15:07:27;;;;;;;6.45;1.77;;;;;;;;;;7335000;19;20006;-83
2022/10/02 15:09:52;;;;;;;8.90;1.67;;;;;;;;;;7363123;19;20454;-85
2022/10/02 15:12:20;;;;;;;8.52;1.58;;;;;;;;;;7377579;19;20003;-83
2022/10/02 15:15:08;;;;;;;5.32;1.75;;;;;;;;;;7363795;19;20017;-84
2022/10/02 15:17:56;;;;;;;8.25;1.77;;;;;;;;;;7335556;19;20014;-83
2022/10/02 15:20:25;;;;;;;7.50;1.95;;;;;;;;;;7375271;19;20010;-84
2022/10/02 15:23:05;;;;;;;7.25;2.20;;;;;;;;;;7371320;19;20019;-85
2022/10/02 15:25:33;;;;;;;8.80;2.10;;;;;;;;;;7369685;19;20006;-84
2022/10/02 15:28:16;;;;;;;9.18;2.03;;;;;;;;;;7373417;19;20013;-83
2022/10/02 15:30:46;;;;;;;8.67;2.57;;;;;;;;;;7357749;19;20014;-83
2022/10/02 15:33:19;;;;;;;16.40;2.03;;;;;;;;;;7365117;19;20011;-83